createdAt,value
2017-12-28T00:01:59.417Z,3.10
2017-12-28T00:04:29.029Z,3.00
2017-12-28T00:06:58.646Z,2.47
2017-12-28T00:09:28.338Z,2.77
2017-12-28T00:11:57.234Z,2.70
2017-12-28T00:14:26.839Z,2.37
2017-12-28T00:16:56.459Z,2.10
2017-12-28T00:19:25.309Z,1.90
2017-12-28T00:21:54.157Z,1.70
2017-12-28T00:24:22.971Z,1.70
2017-12-28T00:26:51.815Z,1.80
2017-12-28T00:29:21.429Z,1.70
2017-12-28T00:31:51.054Z,1.40
2017-12-28T00:34:19.891Z,1.80
2017-12-28T00:36:48.729Z,1.80
2017-12-28T00:39:17.580Z,1.67
2017-12-28T00:41:46.399Z,1.50
2017-12-28T00:44:15.263Z,1.50
2017-12-28T00:46:44.851Z,1.90
2017-12-28T00:49:14.611Z,1.93
2017-12-28T00:51:43.451Z,1.63
2017-12-28T00:54:12.290Z,1.90
2017-12-28T00:56:41.113Z,1.70
2017-12-28T00:59:09.963Z,2.00
2017-12-28T01:01:38.827Z,2.77
2017-12-28T01:04:07.871Z,1.87
2017-12-28T01:06:36.734Z,1.97
2017-12-28T01:09:05.545Z,2.10
2017-12-28T01:11:34.409Z,2.07
2017-12-28T01:14:03.838Z,2.00
2017-12-28T01:16:32.705Z,1.60
2017-12-28T01:19:01.559Z,1.63
2017-12-28T01:21:30.381Z,2.00
2017-12-28T01:23:59.197Z,1.90
2017-12-28T01:26:28.040Z,1.73
2017-12-28T01:28:57.638Z,1.80
2017-12-28T01:31:27.239Z,1.70
2017-12-28T01:33:56.066Z,1.33
2017-12-28T01:36:24.899Z,1.70
2017-12-28T01:38:53.746Z,1.70
2017-12-28T01:41:22.591Z,2.00
2017-12-28T01:43:51.439Z,1.90
2017-12-28T01:46:20.275Z,1.83
2017-12-28T01:48:49.114Z,1.87
2017-12-28T01:51:17.946Z,2.20
2017-12-28T01:53:46.792Z,2.33
2017-12-28T01:56:15.617Z,1.63
2017-12-28T01:58:44.438Z,2.17
2017-12-28T02:01:13.275Z,1.90
2017-12-28T02:03:42.910Z,1.70
2017-12-28T02:06:11.759Z,1.70
2017-12-28T02:08:40.582Z,1.60
2017-12-28T02:11:09.430Z,1.77
2017-12-28T02:13:39.247Z,1.83
2017-12-28T02:16:08.086Z,1.77
2017-12-28T02:18:36.890Z,2.37
2017-12-28T02:21:05.805Z,1.53
2017-12-28T02:23:34.618Z,2.30
2017-12-28T02:26:04.210Z,1.90
2017-12-28T02:28:33.045Z,1.80
2017-12-28T02:31:01.882Z,2.43
2017-12-28T02:33:30.717Z,2.40
2017-12-28T02:35:59.554Z,2.27
2017-12-28T02:38:28.394Z,2.50
2017-12-28T02:40:57.236Z,2.80
2017-12-28T02:43:28.503Z,4.20
2017-12-28T02:45:57.338Z,1.87
2017-12-28T02:48:26.170Z,3.00
2017-12-28T02:50:55.006Z,3.77
2017-12-28T02:53:23.846Z,3.27
2017-12-28T02:55:52.684Z,3.77
2017-12-28T02:58:21.511Z,4.30
2017-12-28T03:00:51.105Z,3.10
2017-12-28T03:03:21.131Z,4.07
2017-12-28T03:05:50.745Z,3.97
2017-12-28T03:08:20.346Z,3.60
2017-12-28T03:10:49.969Z,3.53
2017-12-28T03:13:18.803Z,3.60
2017-12-28T03:15:47.649Z,3.43
2017-12-28T03:18:16.458Z,4.00
2017-12-28T03:20:45.307Z,4.07
2017-12-28T03:23:14.916Z,3.17
2017-12-28T03:25:44.522Z,4.20
2017-12-28T03:28:14.110Z,3.83
2017-12-28T03:30:42.987Z,4.07
2017-12-28T03:33:11.829Z,3.10
2017-12-28T03:35:40.642Z,2.80
2017-12-28T03:38:09.477Z,2.70
2017-12-28T03:40:39.082Z,3.60
2017-12-28T03:43:07.904Z,3.00
2017-12-28T03:45:36.739Z,3.87
2017-12-28T03:48:05.576Z,4.63
2017-12-28T03:50:34.406Z,4.00
2017-12-28T03:53:03.251Z,3.43
2017-12-28T03:55:32.306Z,3.90
2017-12-28T03:58:01.338Z,4.77
2017-12-28T04:00:30.181Z,3.50
2017-12-28T04:02:59.014Z,4.03
2017-12-28T04:05:27.865Z,3.47
2017-12-28T04:07:56.699Z,3.20
2017-12-28T04:10:25.550Z,3.77
2017-12-28T04:12:55.182Z,3.73
2017-12-28T04:15:23.981Z,3.90
2017-12-28T04:17:52.809Z,3.50
2017-12-28T04:20:21.648Z,3.50
2017-12-28T04:22:50.469Z,3.47
2017-12-28T04:25:19.317Z,3.87
2017-12-28T04:27:48.917Z,4.10
2017-12-28T04:30:18.501Z,4.07
2017-12-28T04:32:47.352Z,4.37
2017-12-28T04:35:16.190Z,4.30
2017-12-28T04:37:45.008Z,5.50
2017-12-28T04:40:15.534Z,3.93
2017-12-28T04:42:44.373Z,5.37
2017-12-28T04:45:13.210Z,4.27
2017-12-28T04:47:42.820Z,4.73
2017-12-28T04:50:12.030Z,5.70
2017-12-28T04:52:40.845Z,3.87
2017-12-28T04:55:09.681Z,4.20
2017-12-28T04:57:38.509Z,4.63
2017-12-28T05:00:07.349Z,4.13
2017-12-28T05:02:36.190Z,4.67
2017-12-28T05:05:05.041Z,4.10
2017-12-28T05:07:34.651Z,4.20
2017-12-28T05:10:04.244Z,3.60
2017-12-28T05:12:33.068Z,4.10
2017-12-28T05:15:02.827Z,4.90
2017-12-28T05:17:31.678Z,4.67
2017-12-28T05:20:01.257Z,3.33
2017-12-28T05:22:30.865Z,4.20
2017-12-28T05:25:00.418Z,3.93
2017-12-28T05:27:29.281Z,4.00
2017-12-28T05:29:58.114Z,5.37
2017-12-28T05:32:27.034Z,4.10
2017-12-28T05:34:56.642Z,4.17
2017-12-28T05:37:26.245Z,3.87
2017-12-28T05:39:56.762Z,4.93
2017-12-28T05:42:25.591Z,3.90
2017-12-28T05:44:54.450Z,4.33
2017-12-28T05:47:23.302Z,3.50
2017-12-28T05:49:52.139Z,3.67
2017-12-28T05:52:20.980Z,3.70
2017-12-28T05:54:49.797Z,3.30
2017-12-28T05:57:18.657Z,4.30
2017-12-28T05:59:47.468Z,5.30
2017-12-28T06:02:16.318Z,4.30
2017-12-28T06:04:45.926Z,3.37
2017-12-28T06:07:15.531Z,4.10
2017-12-28T06:09:45.130Z,4.73
2017-12-28T06:12:14.726Z,3.40
2017-12-28T06:14:43.561Z,3.63
2017-12-28T06:17:12.469Z,4.57
2017-12-28T06:19:41.303Z,3.17
2017-12-28T06:22:10.922Z,4.07
2017-12-28T06:24:39.757Z,3.53
2017-12-28T06:27:08.605Z,3.27
2017-12-28T06:29:37.434Z,3.63
2017-12-28T06:32:06.290Z,3.70
2017-12-28T06:34:35.982Z,3.60
2017-12-28T06:37:05.582Z,5.37
2017-12-28T06:39:35.626Z,3.30
2017-12-28T06:42:04.465Z,3.10
2017-12-28T06:44:33.294Z,3.00
2017-12-28T06:47:02.914Z,3.40
2017-12-28T06:49:31.850Z,2.73
2017-12-28T06:52:00.647Z,4.23
2017-12-28T06:54:29.486Z,3.27
2017-12-28T06:56:58.317Z,2.80
2017-12-28T06:59:27.147Z,3.80
2017-12-28T07:01:56.738Z,3.83
2017-12-28T07:04:26.456Z,3.73
2017-12-28T07:06:56.554Z,4.03
2017-12-28T07:09:25.381Z,4.60
2017-12-28T07:11:54.255Z,3.63
2017-12-28T07:14:23.852Z,4.10
2017-12-28T07:16:52.665Z,3.47
2017-12-28T07:19:21.519Z,3.23
2017-12-28T07:21:50.351Z,3.90
2017-12-28T07:24:19.193Z,3.40
2017-12-28T07:26:48.035Z,4.80
2017-12-28T07:29:16.877Z,4.33
2017-12-28T07:31:46.494Z,3.57
2017-12-28T07:34:16.114Z,3.73
2017-12-28T07:36:45.074Z,3.97
2017-12-28T07:39:13.863Z,4.20
2017-12-28T07:41:42.701Z,4.30
2017-12-28T07:44:11.531Z,4.70
2017-12-28T07:46:40.669Z,4.17
2017-12-28T07:49:09.505Z,4.60
2017-12-28T07:51:38.352Z,3.83
2017-12-28T07:54:07.169Z,4.63
2017-12-28T07:56:35.994Z,5.93
2017-12-28T07:59:04.830Z,5.10
2017-12-28T08:01:34.431Z,4.60
2017-12-28T08:04:03.258Z,4.87
2017-12-28T08:06:32.098Z,5.03
2017-12-28T08:09:00.940Z,4.50
2017-12-28T08:11:29.774Z,5.13
2017-12-28T08:13:58.614Z,5.90
2017-12-28T08:16:27.422Z,4.70
2017-12-28T08:18:56.261Z,5.60
2017-12-28T08:21:25.846Z,4.30
2017-12-28T08:23:54.687Z,4.93
2017-12-28T08:26:23.526Z,4.90
2017-12-28T08:28:52.370Z,7.00
2017-12-28T08:31:21.213Z,4.30
2017-12-28T08:33:50.048Z,4.77
2017-12-28T08:36:18.875Z,5.67
2017-12-28T08:38:47.702Z,4.50
2017-12-28T08:41:17.294Z,5.17
2017-12-28T08:43:46.910Z,4.60
2017-12-28T08:46:16.526Z,5.63
2017-12-28T08:48:45.383Z,6.50
2017-12-28T08:51:14.269Z,6.33
2017-12-28T08:53:43.102Z,6.10
2017-12-28T08:56:11.949Z,7.00
2017-12-28T08:58:40.801Z,7.27
2017-12-28T09:01:10.422Z,7.00
2017-12-28T09:03:40.026Z,7.73
2017-12-28T09:06:09.606Z,6.97
2017-12-28T09:08:38.527Z,7.60
2017-12-28T09:11:08.112Z,8.03
2017-12-28T09:13:37.709Z,9.97
2017-12-28T09:16:06.541Z,9.53
2017-12-28T09:18:35.383Z,9.77
2017-12-28T09:21:04.303Z,10.40
2017-12-28T09:23:33.069Z,10.50
2017-12-28T09:26:01.898Z,10.03
2017-12-28T09:28:30.737Z,10.47
2017-12-28T09:30:59.588Z,10.60
2017-12-28T09:33:28.428Z,10.07
2017-12-28T09:35:58.050Z,9.50
2017-12-28T09:38:27.681Z,10.37
2017-12-28T09:40:56.523Z,8.80
2017-12-28T09:43:25.407Z,9.10
2017-12-28T09:45:54.771Z,9.30
2017-12-28T09:48:23.820Z,8.37
2017-12-28T09:50:53.282Z,7.83
2017-12-28T09:53:22.881Z,8.37
2017-12-28T09:55:51.718Z,8.73
2017-12-28T09:58:20.558Z,8.90
2017-12-28T10:00:49.406Z,7.70
2017-12-28T10:03:18.274Z,9.27
2017-12-28T10:05:47.882Z,8.07
2017-12-28T10:08:17.876Z,8.60
2017-12-28T10:10:47.527Z,7.43
2017-12-28T10:13:17.073Z,6.63
2017-12-28T10:15:45.901Z,6.97
2017-12-28T10:18:15.517Z,7.13
2017-12-28T10:20:44.397Z,6.50
2017-12-28T10:23:13.217Z,6.80
2017-12-28T10:25:42.077Z,6.60
2017-12-28T10:28:10.934Z,6.87
2017-12-28T10:30:40.537Z,6.73
2017-12-28T10:33:09.367Z,6.17
2017-12-28T10:35:38.228Z,8.20
2017-12-28T10:38:07.837Z,9.70
2017-12-28T10:40:37.426Z,8.00
2017-12-28T10:43:07.034Z,7.67
2017-12-28T10:45:35.866Z,8.20
2017-12-28T10:48:04.706Z,9.10
2017-12-28T10:50:33.537Z,7.70
2017-12-28T10:53:02.406Z,7.17
2017-12-28T10:55:31.241Z,9.00
2017-12-28T10:58:00.861Z,8.30
2017-12-28T11:00:30.466Z,8.70
2017-12-28T11:03:00.063Z,8.90
2017-12-28T11:05:29.671Z,7.97
2017-12-28T11:07:59.266Z,8.23
2017-12-28T11:10:28.110Z,9.40
2017-12-28T11:12:56.955Z,9.30
2017-12-28T11:15:26.566Z,7.93
2017-12-28T11:17:56.179Z,6.70
2017-12-28T11:20:25.803Z,7.50
2017-12-28T11:22:54.664Z,7.40
2017-12-28T11:25:23.489Z,7.73
2017-12-28T11:27:52.293Z,7.13
2017-12-28T11:30:21.146Z,7.23
2017-12-28T11:32:50.742Z,7.20
2017-12-28T11:35:20.345Z,6.90
2017-12-28T11:37:49.954Z,6.70
2017-12-28T11:40:19.553Z,6.90
2017-12-28T11:42:48.382Z,5.87
2017-12-28T11:45:17.219Z,6.70
2017-12-28T11:48:00.955Z,6.80
2017-12-28T11:50:42.416Z,5.87
2017-12-28T11:53:16.805Z,5.60
2017-12-28T11:55:46.397Z,5.50
2017-12-28T11:58:16.010Z,5.23
2017-12-28T12:00:51.067Z,6.30
2017-12-28T12:03:35.829Z,7.20
2017-12-28T12:06:04.686Z,5.07
2017-12-28T12:08:34.298Z,5.17
2017-12-28T12:11:03.894Z,5.23
2017-12-28T12:13:33.505Z,5.23
2017-12-28T12:16:03.113Z,4.87
2017-12-28T12:18:32.758Z,4.93
2017-12-28T12:21:01.615Z,6.40
2017-12-28T12:23:31.207Z,4.90
2017-12-28T12:26:01.325Z,5.20
2017-12-28T12:28:30.166Z,5.60
2017-12-28T12:30:59.702Z,4.90
2017-12-28T12:33:28.641Z,4.87
2017-12-28T12:35:57.997Z,4.20
2017-12-28T12:38:26.803Z,6.07
2017-12-28T12:40:56.649Z,4.23
2017-12-28T12:43:25.504Z,3.67
2017-12-28T12:45:54.349Z,4.57
2017-12-28T12:48:23.197Z,3.60
2017-12-28T12:50:52.015Z,3.57
2017-12-28T12:53:21.617Z,3.37
2017-12-28T12:55:51.713Z,4.40
2017-12-28T12:58:20.578Z,3.47
2017-12-28T13:00:49.398Z,3.60
2017-12-28T13:03:18.486Z,3.50
2017-12-28T13:05:47.328Z,3.97
2017-12-28T13:08:16.165Z,4.90
2017-12-28T13:10:45.001Z,3.93
2017-12-28T13:13:13.890Z,4.27
2017-12-28T13:15:42.705Z,3.47
2017-12-28T13:18:11.526Z,4.40
2017-12-28T13:20:40.357Z,5.00
2017-12-28T13:23:09.203Z,4.90
2017-12-28T13:25:38.407Z,4.57
2017-12-28T13:28:07.875Z,5.17
2017-12-28T13:30:36.718Z,5.10
2017-12-28T13:33:06.347Z,6.03
2017-12-28T13:35:35.190Z,6.20
2017-12-28T13:38:04.032Z,6.27
2017-12-28T13:40:32.901Z,5.87
2017-12-28T13:43:01.724Z,6.30
2017-12-28T13:45:30.560Z,5.90
2017-12-28T13:47:59.381Z,7.47
2017-12-28T13:50:28.224Z,8.30
2017-12-28T13:52:57.076Z,7.73
2017-12-28T13:55:25.898Z,6.23
2017-12-28T13:57:55.502Z,5.53
2017-12-28T14:00:25.284Z,5.20
2017-12-28T14:02:54.129Z,5.30
2017-12-28T14:05:22.965Z,5.30
2017-12-28T14:07:51.809Z,5.30
2017-12-28T14:10:20.658Z,5.70
2017-12-28T14:12:50.265Z,4.90
2017-12-28T14:15:19.849Z,6.27
2017-12-28T14:17:48.691Z,5.90
2017-12-28T14:20:18.705Z,5.50
2017-12-28T14:22:47.523Z,6.43
2017-12-28T14:25:16.381Z,6.23
2017-12-28T14:27:45.255Z,7.57
2017-12-28T14:30:14.895Z,6.20
2017-12-28T14:32:43.740Z,6.57
2017-12-28T14:35:13.389Z,6.87
2017-12-28T14:37:42.239Z,6.73
2017-12-28T14:40:11.854Z,6.17
2017-12-28T14:42:41.452Z,5.80
2017-12-28T14:45:10.286Z,5.50
2017-12-28T14:47:39.131Z,6.00
2017-12-28T14:50:08.776Z,5.30
2017-12-28T14:52:37.586Z,5.40
2017-12-28T14:55:06.431Z,5.80
2017-12-28T14:57:35.278Z,6.00
2017-12-28T15:00:04.120Z,5.57
2017-12-28T15:02:32.973Z,4.60
2017-12-28T15:05:02.626Z,4.50
2017-12-28T15:07:32.028Z,4.33
2017-12-28T15:10:00.863Z,5.40
2017-12-28T15:12:30.598Z,5.10
2017-12-28T15:15:00.178Z,4.50
2017-12-28T15:17:29.787Z,4.43
2017-12-28T15:19:59.420Z,4.33
2017-12-28T15:22:28.234Z,4.70
2017-12-28T15:24:57.106Z,4.70
2017-12-28T15:27:25.940Z,4.47
2017-12-28T15:29:54.774Z,4.07
2017-12-28T15:32:23.600Z,5.13
2017-12-28T15:34:52.458Z,5.10
2017-12-28T15:37:21.302Z,4.93
2017-12-28T15:39:50.638Z,3.83
2017-12-28T15:42:19.462Z,4.23
2017-12-28T15:44:48.321Z,4.73
2017-12-28T15:47:17.134Z,5.20
2017-12-28T15:49:45.994Z,5.37
2017-12-28T15:52:14.813Z,5.90
2017-12-28T15:54:43.655Z,5.60
2017-12-28T15:57:12.492Z,5.10
2017-12-28T15:59:41.359Z,6.00
2017-12-28T16:02:10.240Z,5.63
2017-12-28T16:04:39.087Z,6.47
2017-12-28T16:07:08.726Z,6.00
2017-12-28T16:09:37.558Z,5.80
2017-12-28T16:12:06.411Z,6.43
2017-12-28T16:14:35.257Z,6.70
2017-12-28T16:17:04.103Z,6.73
2017-12-28T16:19:33.059Z,6.63
2017-12-28T16:22:01.907Z,5.97
2017-12-28T16:24:30.733Z,6.43
2017-12-28T16:27:01.862Z,7.37
2017-12-28T16:29:30.690Z,6.90
2017-12-28T16:31:59.689Z,6.57
2017-12-28T16:34:28.539Z,7.07
2017-12-28T16:36:58.143Z,6.23
2017-12-28T16:39:27.898Z,6.60
2017-12-28T16:41:56.742Z,6.27
2017-12-28T16:44:26.348Z,5.70
2017-12-28T16:46:55.944Z,5.63
2017-12-28T16:49:24.831Z,5.93
2017-12-28T16:51:53.657Z,5.93
2017-12-28T16:54:22.521Z,5.57
2017-12-28T16:56:51.350Z,5.93
2017-12-28T16:59:20.196Z,5.80
2017-12-28T17:01:49.043Z,6.03
2017-12-28T17:04:18.678Z,5.33
2017-12-28T17:06:47.517Z,5.60
2017-12-28T17:09:16.356Z,6.70
2017-12-28T17:11:45.194Z,5.67
2017-12-28T17:14:14.030Z,5.80
2017-12-28T17:16:42.874Z,7.77
2017-12-28T17:19:11.723Z,6.23
2017-12-28T17:21:40.567Z,6.77
2017-12-28T17:24:09.395Z,8.03
2017-12-28T17:26:38.241Z,7.20
2017-12-28T17:29:07.073Z,7.67
2017-12-28T17:31:35.971Z,7.70
2017-12-28T17:34:04.802Z,7.87
2017-12-28T17:36:33.701Z,7.87
2017-12-28T17:39:02.542Z,8.93
2017-12-28T17:41:31.386Z,8.43
2017-12-28T17:44:01.634Z,8.70
2017-12-28T17:46:30.511Z,9.40
2017-12-28T17:49:00.705Z,8.67
2017-12-28T17:51:29.543Z,7.63
2017-12-28T17:53:58.385Z,8.10
2017-12-28T17:56:27.220Z,7.40
2017-12-28T17:58:56.067Z,8.70
2017-12-28T18:01:25.656Z,8.50
2017-12-28T18:03:54.502Z,8.03
2017-12-28T18:06:23.325Z,7.97
2017-12-28T18:08:52.179Z,10.10
2017-12-28T18:11:21.035Z,9.03
2017-12-28T18:13:49.935Z,8.80
2017-12-28T18:16:19.534Z,8.60
2017-12-28T18:18:49.141Z,9.13
2017-12-28T18:21:18.744Z,9.10
2017-12-28T18:23:48.386Z,9.03
2017-12-28T18:26:17.268Z,9.00
2017-12-28T18:28:46.107Z,8.90
2017-12-28T18:31:14.952Z,9.17
2017-12-28T18:33:43.818Z,9.07
2017-12-28T18:36:12.677Z,10.60
2017-12-28T18:38:41.514Z,9.43
2017-12-28T18:41:10.359Z,8.40
2017-12-28T18:43:39.203Z,8.17
2017-12-28T18:46:08.062Z,9.00
2017-12-28T18:48:36.883Z,8.47
2017-12-28T18:51:05.771Z,10.03
2017-12-28T18:53:35.359Z,9.07
2017-12-28T18:56:04.250Z,8.60
2017-12-28T18:58:33.108Z,9.00
2017-12-28T19:01:02.003Z,7.67
2017-12-28T19:03:30.887Z,8.80
2017-12-28T19:05:59.726Z,8.87
2017-12-28T19:08:28.668Z,8.60
2017-12-28T19:10:57.486Z,9.17
2017-12-28T19:13:26.367Z,9.63
2017-12-28T19:15:55.197Z,10.47
2017-12-28T19:18:24.944Z,8.73
2017-12-28T19:20:54.646Z,8.77
2017-12-28T19:23:24.234Z,9.20
2017-12-28T19:25:59.244Z,8.67
2017-12-28T19:28:30.640Z,9.27
2017-12-28T19:30:59.890Z,9.63
2017-12-28T19:33:28.720Z,10.00
2017-12-28T19:35:57.692Z,8.47
2017-12-28T19:38:27.897Z,8.67
2017-12-28T19:40:58.115Z,8.30
2017-12-28T19:43:27.415Z,8.73
2017-12-28T19:45:58.873Z,8.70
2017-12-28T19:48:27.935Z,8.20
2017-12-28T19:50:57.197Z,9.50
2017-12-28T19:53:26.192Z,9.40
2017-12-28T19:55:56.135Z,9.60
2017-12-28T19:58:25.137Z,8.43
2017-12-28T20:00:54.914Z,9.10
2017-12-28T20:03:25.028Z,9.10
2017-12-28T20:05:57.017Z,9.37
2017-12-28T20:08:26.015Z,9.70
2017-12-28T20:10:55.384Z,10.20
2017-12-28T20:13:24.715Z,10.13
2017-12-28T20:15:54.093Z,11.00
2017-12-28T20:18:24.045Z,10.63
2017-12-28T20:20:53.092Z,11.00
2017-12-28T20:23:22.142Z,9.40
2017-12-28T20:25:52.312Z,9.90
2017-12-28T20:28:22.085Z,10.00
2017-12-28T20:30:53.379Z,10.27
2017-12-28T20:33:23.335Z,10.63
2017-12-28T20:35:57.842Z,9.70
2017-12-28T20:38:28.694Z,9.73
2017-12-28T20:40:58.504Z,9.97
2017-12-28T20:43:28.521Z,10.53
2017-12-28T20:45:59.103Z,9.90
2017-12-28T20:51:04.896Z,9.23
2017-12-28T20:53:34.707Z,8.70
2017-12-28T20:56:04.872Z,8.33
2017-12-28T20:58:35.987Z,9.83
2017-12-28T21:01:05.907Z,8.90
2017-12-28T21:03:36.808Z,9.30
2017-12-28T21:06:05.942Z,8.60
2017-12-28T21:08:35.514Z,7.83
2017-12-28T21:11:05.810Z,9.00
2017-12-28T21:13:35.462Z,8.90
2017-12-28T21:16:06.919Z,9.07
2017-12-28T21:18:37.417Z,8.63
2017-12-28T21:21:07.535Z,8.40
2017-12-28T21:23:37.144Z,8.87
2017-12-28T21:26:07.234Z,8.70
2017-12-28T21:28:37.383Z,8.83
2017-12-28T21:31:07.064Z,9.03
2017-12-28T21:33:36.407Z,8.20
2017-12-28T21:36:06.102Z,9.40
2017-12-28T21:38:35.879Z,9.80
2017-12-28T21:41:05.826Z,8.80
2017-12-28T21:43:35.235Z,9.60
2017-12-28T21:46:04.154Z,8.60
2017-12-28T21:48:33.910Z,9.90
2017-12-28T21:51:02.786Z,8.67
2017-12-28T21:53:33.160Z,8.20
2017-12-28T21:56:02.852Z,9.30
2017-12-28T21:58:32.344Z,9.63
2017-12-28T22:01:01.542Z,9.40
2017-12-28T22:03:31.634Z,10.07
2017-12-28T22:06:00.862Z,9.70
2017-12-28T22:08:29.746Z,8.67
2017-12-28T22:10:58.611Z,10.50
2017-12-28T22:13:27.512Z,9.40
2017-12-28T22:15:56.423Z,10.27
2017-12-28T22:18:25.301Z,9.67
2017-12-28T22:20:54.122Z,9.67
2017-12-28T22:23:23.033Z,9.80
2017-12-28T22:25:51.862Z,9.00
2017-12-28T22:28:20.713Z,9.47
2017-12-28T22:30:49.540Z,8.27
2017-12-28T22:33:18.470Z,9.40
2017-12-28T22:35:47.368Z,9.10
2017-12-28T22:38:17.042Z,8.57
2017-12-28T22:40:46.722Z,10.23
2017-12-28T22:43:15.576Z,12.00
2017-12-28T22:45:45.203Z,9.40
2017-12-28T22:48:14.070Z,9.90
2017-12-28T22:50:43.685Z,8.77
2017-12-28T22:53:13.306Z,8.47
2017-12-28T22:55:42.182Z,9.83
2017-12-28T22:58:10.991Z,9.13
2017-12-28T23:00:39.825Z,9.03
2017-12-28T23:03:08.675Z,8.40
2017-12-28T23:05:37.529Z,9.30
2017-12-28T23:08:06.354Z,8.10
2017-12-28T23:10:35.286Z,8.20
2017-12-28T23:13:04.426Z,8.47
2017-12-28T23:15:33.267Z,8.00
2017-12-28T23:18:02.106Z,8.83
2017-12-28T23:20:30.956Z,8.73
2017-12-28T23:22:59.782Z,8.80
2017-12-28T23:25:28.630Z,7.87
2017-12-28T23:27:57.505Z,8.47
2017-12-28T23:30:27.097Z,8.10
2017-12-28T23:32:56.734Z,8.40
2017-12-28T23:35:25.583Z,9.10
2017-12-28T23:37:55.929Z,7.73
2017-12-28T23:40:25.622Z,8.20
2017-12-28T23:42:55.241Z,7.60
2017-12-28T23:45:24.516Z,9.03
2017-12-28T23:47:53.349Z,7.80
2017-12-28T23:50:22.210Z,9.10
2017-12-28T23:52:51.817Z,7.50
2017-12-28T23:55:21.442Z,7.30
2017-12-28T23:57:51.022Z,7.03
